Time;durP1;ratioP1;P1;durP2;ratioP2;P2;SDS_P1;SDS_P2;PMS_P1;PMS_P2;Temp;Humidity;BMP_temperature;BMP_pressure;BME280_temperature;BME280_humidity;BME280_pressure;Samples;Min_cycle;Max_cycle;Signal;HPM_P1;HPM_P2
2023/12/16 00:00:27;;;;;;;10.52;4.70;;;;;;;-4.15;100.00;100055.25;5114570;28;20066;-63
2023/12/16 00:02:53;;;;;;;12.10;4.43;;;;;;;-4.09;100.00;100038.22;5116592;28;20074;-62
2023/12/16 00:05:22;;;;;;;8.00;4.47;;;;;;;-4.05;100.00;100030.50;5114554;28;20147;-64
2023/12/16 00:07:48;;;;;;;10.40;5.57;;;;;;;-4.14;100.00;100024.75;5116993;28;20051;-62
2023/12/16 00:10:16;;;;;;;13.20;4.13;;;;;;;-3.91;100.00;100039.78;5114469;28;20087;-62
2023/12/16 00:12:42;;;;;;;10.13;4.78;;;;;;;-3.94;100.00;100013.50;5116984;28;20066;-63
2023/12/16 00:15:10;;;;;;;10.57;5.30;;;;;;;-3.91;100.00;100020.22;5114159;28;20494;-63
2023/12/16 00:17:37;;;;;;;12.10;5.35;;;;;;;-3.80;100.00;100013.94;5114352;28;20057;-64
2023/12/16 00:20:04;;;;;;;10.95;4.68;;;;;;;-3.73;100.00;99985.09;5116702;28;20087;-62
2023/12/16 00:22:31;;;;;;;7.15;4.10;;;;;;;-3.58;100.00;99985.25;5114261;28;20077;-61
2023/12/16 00:24:57;;;;;;;8.13;4.57;;;;;;;-3.72;100.00;99943.84;5116571;28;20384;-64
2023/12/16 00:27:23;;;;;;;8.55;4.80;;;;;;;-3.54;100.00;99934.63;5114128;28;20098;-61
2023/12/16 00:29:50;;;;;;;11.63;5.20;;;;;;;-3.47;100.00;99903.06;5116585;28;20087;-63
2023/12/16 00:32:18;;;;;;;9.95;5.15;;;;;;;-3.50;100.00;99868.72;5114173;28;20441;-61
2023/12/16 00:34:45;;;;;;;9.45;4.15;;;;;;;-3.36;100.00;99853.84;5116120;28;20144;-64
2023/12/16 00:37:11;;;;;;;10.77;5.20;;;;;;;-3.29;100.00;99821.44;5116621;28;20102;-61
2023/12/16 00:39:38;;;;;;;16.10;6.75;;;;;;;-3.44;100.00;99784.59;5120292;28;20140;-64
2023/12/16 00:42:04;;;;;;;15.57;7.05;;;;;;;-3.19;100.00;99778.63;5117615;28;20431;-62
2023/12/16 00:44:33;;;;;;;13.27;5.90;;;;;;;-3.22;100.00;99736.22;5117539;28;20192;-63
2023/12/16 00:47:00;;;;;;;34.28;13.38;;;;;;;-3.01;100.00;99723.72;5119985;28;20066;-61
2023/12/16 00:49:26;;;;;;;41.67;17.35;;;;;;;-3.04;100.00;99693.94;5117752;28;20082;-64
2023/12/16 00:51:53;;;;;;;20.60;7.22;;;;;;;-2.99;100.00;99677.88;5119715;28;20110;-62
2023/12/16 00:54:19;;;;;;;6.60;3.72;;;;;;;-2.95;100.00;99654.81;5117552;28;20059;-62
2023/12/16 00:56:47;;;;;;;12.48;4.75;;;;;;;-3.01;100.00;99642.44;5119944;28;20111;-64
2023/12/16 00:59:13;;;;;;;7.45;4.07;;;;;;;-2.84;100.00;99645.69;5117400;28;20055;-63
2023/12/16 01:01:40;;;;;;;11.27;3.95;;;;;;;-2.78;100.00;99625.88;5119934;28;20087;-63
2023/12/16 01:04:06;;;;;;;7.80;4.30;;;;;;;-2.76;100.00;99637.16;5117318;28;20345;-64
2023/12/16 01:06:33;;;;;;;10.10;5.93;;;;;;;-2.67;100.00;99650.84;5119832;28;20059;-60
2023/12/16 01:09:00;;;;;;;11.10;4.70;;;;;;;-2.48;100.00;99675.31;5117229;28;20048;-64
2023/12/16 01:11:26;;;;;;;9.68;4.45;;;;;;;-2.48;100.00;99653.81;5118212;28;20083;-61
2023/12/16 01:13:53;;;;;;;13.38;5.35;;;;;;;-2.46;100.00;99668.59;5118730;28;20051;-62
2023/12/16 01:16:19;;;;;;;7.57;4.10;;;;;;;-2.56;100.00;99679.31;5117078;28;20113;-64
2023/12/16 01:18:45;;;;;;;9.43;5.03;;;;;;;-2.53;100.00;99704.81;5119268;28;20115;-63
2023/12/16 01:21:12;;;;;;;10.18;4.82;;;;;;;-2.40;100.00;99731.97;5117263;28;20097;-61
2023/12/16 01:23:38;;;;;;;8.60;4.50;;;;;;;-2.49;100.00;99728.19;5119496;28;20083;-64
2023/12/16 01:26:05;;;;;;;8.80;4.70;;;;;;;-2.40;100.00;99737.34;5117000;28;20098;-61
2023/12/16 01:28:32;;;;;;;9.95;4.97;;;;;;;-2.46;100.00;99725.00;5119321;28;20062;-61
2023/12/16 01:30:59;;;;;;;10.77;5.22;;;;;;;-2.47;100.00;99750.19;5116945;28;20059;-63
2023/12/16 01:33:25;;;;;;;9.93;4.47;;;;;;;-2.35;100.00;99778.72;5118931;28;20097;-61
2023/12/16 01:35:51;;;;;;;11.05;5.82;;;;;;;-2.39;100.00;99789.19;5116792;28;20067;-64
2023/12/16 01:38:18;;;;;;;11.32;4.93;;;;;;;-2.27;100.00;99807.72;5119191;28;20083;-62
2023/12/16 01:40:44;;;;;;;10.40;4.43;;;;;;;-2.21;100.00;99815.53;5117399;28;20087;-61
2023/12/16 01:43:12;;;;;;;8.00;4.20;;;;;;;-2.25;100.00;99819.03;5116926;28;20048;-64
2023/12/16 01:45:38;;;;;;;11.10;4.88;;;;;;;-2.30;100.00;99864.66;5118770;28;20482;-61
2023/12/16 01:48:06;;;;;;;8.20;4.80;;;;;;;-2.13;100.00;99884.88;5115574;28;20093;-64
2023/12/16 01:50:33;;;;;;;11.00;4.93;;;;;;;-2.19;100.00;99867.13;5118889;28;20052;-61
2023/12/16 01:53:00;;;;;;;10.63;5.07;;;;;;;-2.09;100.00;99876.31;5116707;28;20055;-61
2023/12/16 01:55:27;;;;;;;10.45;5.05;;;;;;;-2.26;100.00;99852.34;5118964;28;20109;-61
2023/12/16 01:57:55;;;;;;;10.15;4.72;;;;;;;-2.09;100.00;99885.16;5116377;28;20098;-62
2023/12/16 02:00:23;;;;;;;9.57;5.00;;;;;;;-2.04;100.00;99890.53;5118995;28;20070;-62
2023/12/16 02:02:50;;;;;;;9.75;4.75;;;;;;;-2.07;100.00;99915.25;5116612;28;20091;-61
2023/12/16 02:05:16;;;;;;;10.77;4.55;;;;;;;-1.94;100.00;99917.44;5119010;28;20158;-62
2023/12/16 02:07:44;;;;;;;8.93;4.50;;;;;;;-1.90;100.00;99905.13;5118560;28;20067;-62
2023/12/16 02:10:10;;;;;;;11.60;5.07;;;;;;;-1.93;100.00;99907.53;5116271;28;20087;-62
2023/12/16 02:12:36;;;;;;;9.55;4.35;;;;;;;-1.82;100.00;99938.72;5118444;28;20055;-64
2023/12/16 02:15:05;;;;;;;10.70;4.82;;;;;;;-1.88;100.00;99966.66;5116253;28;20373;-63
2023/12/16 02:17:32;;;;;;;9.90;5.13;;;;;;;-1.85;100.00;99992.19;5118402;28;20066;-61
2023/12/16 02:19:58;;;;;;;9.85;4.88;;;;;;;-1.81;100.00;100055.09;5116044;28;20059;-65
2023/12/16 02:22:24;;;;;;;13.50;5.18;;;;;;;-1.71;100.00;100066.72;5118569;28;20055;-61
2023/12/16 02:24:52;;;;;;;8.93;4.78;;;;;;;-1.96;100.00;100091.59;5116104;28;20056;-61
2023/12/16 02:27:19;;;;;;;14.70;5.10;;;;;;;-1.81;100.00;100128.50;5118590;28;20089;-63
2023/12/16 02:29:45;;;;;;;10.35;5.22;;;;;;;-1.53;100.00;100126.53;5116010;28;20371;-61
2023/12/16 02:32:11;;;;;;;10.18;5.00;;;;;;;-1.71;100.00;100112.41;5118504;28;20091;-64
2023/12/16 02:34:38;;;;;;;12.35;5.78;;;;;;;-1.60;100.00;100107.94;5115766;28;20102;-62
2023/12/16 02:37:06;;;;;;;11.68;4.95;;;;;;;-1.45;100.00;100091.84;5116004;28;20325;-62
2023/12/16 02:39:32;;;;;;;10.20;5.43;;;;;;;-1.56;100.00;100065.19;5118141;28;20287;-64
2023/12/16 02:41:59;;;;;;;11.25;5.38;;;;;;;-1.60;100.00;100051.47;5115911;28;20055;-64
2023/12/16 02:44:26;;;;;;;12.65;5.97;;;;;;;-1.58;100.00;100035.84;5118090;28;20047;-62
2023/12/16 02:46:52;;;;;;;14.02;6.25;;;;;;;-1.54;100.00;100045.00;5115616;28;20078;-62
2023/12/16 02:49:18;;;;;;;8.43;4.82;;;;;;;-1.50;100.00;100046.13;5118010;28;20446;-64
2023/12/16 02:51:45;;;;;;;12.75;5.47;;;;;;;-1.39;100.00;100065.78;5115602;28;20100;-61
2023/12/16 02:54:11;;;;;;;10.13;5.30;;;;;;;-1.31;100.00;100085.97;5118159;28;20091;-64
2023/12/16 02:56:37;;;;;;;10.98;6.13;;;;;;;-1.34;100.00;100095.38;5115496;28;20055;-63
2023/12/16 02:59:04;;;;;;;12.55;5.95;;;;;;;-1.24;100.00;100134.97;5117896;28;20091;-62
2023/12/16 03:01:31;;;;;;;12.73;5.80;;;;;;;-1.26;100.00;100137.13;5115498;28;20148;-63
2023/12/16 03:03:57;;;;;;;14.40;6.53;;;;;;;-1.23;100.00;100126.66;5116721;28;20089;-62
2023/12/16 03:06:23;;;;;;;13.88;6.25;;;;;;;-1.17;100.00;100159.75;5116877;28;20070;-64
2023/12/16 03:08:50;;;;;;;13.65;6.25;;;;;;;-1.12;100.00;100161.66;5115273;28;20074;-61
2023/12/16 03:11:16;;;;;;;15.77;6.70;;;;;;;-1.12;100.00;100143.63;5117763;28;20094;-63
2023/12/16 03:13:42;;;;;;;16.92;6.72;;;;;;;-1.30;100.00;100154.84;5115188;28;20063;-64
2023/12/16 03:16:10;;;;;;;17.35;7.88;;;;;;;-1.11;100.00;100182.91;5117453;28;20059;-61
2023/12/16 03:18:37;;;;;;;17.13;6.60;;;;;;;-1.19;100.00;100183.44;5115372;28;20068;-63
2023/12/16 03:21:05;;;;;;;15.15;7.60;;;;;;;-1.13;100.00;100186.94;5117532;28;20047;-63
2023/12/16 03:23:31;;;;;;;27.73;9.25;;;;;;;-1.06;100.00;100198.31;5115091;28;20146;-62
2023/12/16 03:25:57;;;;;;;29.08;10.50;;;;;;;-1.11;100.00;100235.94;5117593;28;20128;-64
2023/12/16 03:28:23;;;;;;;29.30;9.70;;;;;;;-1.12;100.00;100232.44;5115002;28;20144;-61
2023/12/16 03:30:50;;;;;;;28.95;10.93;;;;;;;-1.01;100.00;100244.06;5117376;28;20055;-64
2023/12/16 03:33:17;;;;;;;25.33;9.98;;;;;;;-1.20;100.00;100259.81;5115655;28;20087;-62
2023/12/16 03:35:43;;;;;;;25.98;10.35;;;;;;;-1.19;100.00;100275.72;5114825;28;20088;-64
2023/12/16 03:38:09;;;;;;;25.65;10.50;;;;;;;-1.07;100.00;100285.47;5116861;28;20109;-62
2023/12/16 03:40:36;;;;;;;23.30;8.68;;;;;;;-1.22;100.00;100319.28;5115084;28;20094;-62
2023/12/16 03:43:02;;;;;;;26.30;10.68;;;;;;;-0.98;100.00;100335.88;5117266;28;20134;-64
2023/12/16 03:45:28;;;;;;;22.88;9.45;;;;;;;-0.96;100.00;100316.78;5114880;28;20091;-62
2023/12/16 03:47:55;;;;;;;29.65;9.52;;;;;;;-0.98;100.00;100302.75;5117146;28;20090;-62
2023/12/16 03:50:22;;;;;;;22.20;9.75;;;;;;;-1.13;100.00;100299.97;5114729;28;20087;-64
2023/12/16 03:52:48;;;;;;;19.77;7.90;;;;;;;-0.97;100.00;100305.19;5117205;28;20083;-62
2023/12/16 03:55:14;;;;;;;28.13;9.95;;;;;;;-0.96;100.00;100290.66;5114626;28;20429;-64
2023/12/16 03:57:41;;;;;;;29.42;10.55;;;;;;;-1.17;100.00;100310.44;5117156;28;20362;-62
2023/12/16 04:00:08;;;;;;;22.50;9.50;;;;;;;-1.01;100.00;100316.72;5114533;28;20189;-63
2023/12/16 04:02:35;;;;;;;22.70;10.05;;;;;;;-1.16;100.00;100309.38;5114789;28;20058;-61
2023/12/16 04:05:01;;;;;;;28.70;10.82;;;;;;;-0.85;100.00;100325.72;5116671;28;20083;-63
2023/12/16 04:07:28;;;;;;;26.08;10.13;;;;;;;-0.89;100.00;100303.91;5114403;28;20047;-62
2023/12/16 04:09:54;;;;;;;25.60;10.68;;;;;;;-0.99;100.00;100304.66;5116697;28;20055;-64
2023/12/16 04:12:21;;;;;;;23.10;10.68;;;;;;;-1.04;100.00;100301.91;5120706;28;20122;-62
2023/12/16 04:14:47;;;;;;;29.65;10.73;;;;;;;-1.12;100.00;100304.28;5123385;28;20066;-63
2023/12/16 04:17:13;;;;;;;30.75;12.48;;;;;;;-0.96;100.00;100320.28;5121353;28;20093;-63
2023/12/16 04:19:50;;;;;;;29.33;12.75;;;;;;;-0.95;100.00;100311.13;5123599;28;20433;-61
2023/12/16 04:22:17;;;;;;;31.35;11.60;;;;;;;-0.76;100.00;100310.69;5121124;28;20410;-64
2023/12/16 04:24:44;;;;;;;33.00;12.85;;;;;;;-0.90;100.00;100290.69;5123711;28;20150;-64
2023/12/16 04:27:10;;;;;;;36.35;12.15;;;;;;;-0.95;100.00;100294.16;5121007;28;20386;-62
2023/12/16 04:29:37;;;;;;;26.58;10.68;;;;;;;-0.88;100.00;100302.00;5120947;28;20051;-63
2023/12/16 04:32:03;;;;;;;31.50;11.05;;;;;;;-1.45;100.00;100306.22;5123087;27;20081;-63
2023/12/16 04:34:30;;;;;;;26.85;12.02;;;;;;;-1.35;100.00;100333.19;5120898;28;20143;-64
2023/12/16 04:36:56;;;;;;;24.85;9.85;;;;;;;-1.87;100.00;100354.50;5123415;28;20146;-62
2023/12/16 04:39:22;;;;;;;28.45;11.27;;;;;;;-1.50;100.00;100379.59;5120797;28;20087;-63
2023/12/16 04:41:50;;;;;;;20.95;10.60;;;;;;;-1.63;100.00;100371.13;5123089;28;20047;-63
2023/12/16 04:44:16;;;;;;;24.17;11.52;;;;;;;-1.37;100.00;100372.16;5120713;28;20097;-62
2023/12/16 04:46:42;;;;;;;29.15;10.73;;;;;;;-1.33;100.00;100368.72;5122925;28;20112;-61
2023/12/16 04:49:09;;;;;;;22.23;10.80;;;;;;;-1.36;100.00;100371.13;5120650;28;20333;-64
2023/12/16 04:51:35;;;;;;;28.25;12.57;;;;;;;-0.84;100.00;100378.47;5123213;28;20052;-63
2023/12/16 04:54:01;;;;;;;23.50;11.45;;;;;;;-0.89;100.00;100368.50;5120735;28;20081;-63
2023/12/16 04:56:28;;;;;;;28.80;11.63;;;;;;;-0.87;100.00;100362.84;5121943;28;20052;-65
2023/12/16 04:58:55;;;;;;;28.40;10.65;;;;;;;-0.74;100.00;100351.63;5121949;28;20150;-62
2023/12/16 05:01:21;;;;;;;28.10;11.50;;;;;;;-1.03;100.00;100322.38;5120841;28;20141;-65
2023/12/16 05:03:48;;;;;;;25.63;11.80;;;;;;;-0.96;100.00;100328.34;5123000;28;20459;-64
2023/12/16 05:06:14;;;;;;;31.40;12.05;;;;;;;-0.69;100.00;100332.00;5120722;28;20340;-63
2023/12/16 05:08:40;;;;;;;23.85;10.45;;;;;;;-0.43;100.00;100314.88;5122756;28;20153;-62
2023/12/16 05:11:07;;;;;;;28.95;11.38;;;;;;;-0.58;100.00;100291.38;5120687;28;20098;-65
2023/12/16 05:13:33;;;;;;;39.47;13.35;;;;;;;-0.61;100.00;100273.03;5122923;28;20082;-62
2023/12/16 05:16:00;;;;;;;32.90;11.93;;;;;;;-0.85;100.00;100285.34;5120323;28;20425;-63
2023/12/16 05:18:26;;;;;;;35.30;13.77;;;;;;;-0.63;100.00;100304.00;5122919;28;20106;-62
2023/12/16 05:20:53;;;;;;;27.55;11.07;;;;;;;-1.07;100.00;100315.88;5120333;28;20055;-63
2023/12/16 05:23:19;;;;;;;28.98;12.75;;;;;;;-1.05;100.00;100339.88;5120399;28;20048;-63
2023/12/16 05:25:45;;;;;;;27.08;12.25;;;;;;;-1.11;100.00;100357.84;5119088;28;20055;-63
2023/12/16 05:28:12;;;;;;;34.85;13.75;;;;;;;-0.69;100.00;100359.75;5116936;28;20129;-62
2023/12/16 05:30:38;;;;;;;34.58;13.88;;;;;;;-0.48;100.00;100361.44;5119325;28;20062;-64
2023/12/16 05:33:05;;;;;;;36.00;14.77;;;;;;;-0.59;100.00;100362.47;5116836;28;20102;-61
2023/12/16 05:35:32;;;;;;;34.00;14.25;;;;;;;-0.43;100.00;100359.84;5118976;28;20059;-62
2023/12/16 05:37:58;;;;;;;36.13;14.23;;;;;;;-0.28;100.00;100362.63;5116690;28;20071;-64
2023/12/16 05:40:25;;;;;;;37.95;13.60;;;;;;;-0.28;100.00;100343.75;5119139;28;20062;-63
2023/12/16 05:42:51;;;;;;;32.85;13.57;;;;;;;-0.57;100.00;100336.09;5116738;28;20095;-62
2023/12/16 05:45:17;;;;;;;31.35;13.90;;;;;;;-0.29;100.00;100348.34;5119077;28;20055;-64
2023/12/16 05:47:44;;;;;;;33.60;13.18;;;;;;;0.02;100.00;100353.03;5116669;28;20086;-62
2023/12/16 05:50:11;;;;;;;32.00;13.70;;;;;;;-0.01;100.00;100330.09;5119160;28;20047;-63
2023/12/16 05:52:37;;;;;;;34.10;12.63;;;;;;;-0.21;100.00;100311.97;5116488;28;20063;-63
2023/12/16 05:55:04;;;;;;;32.67;14.07;;;;;;;-0.04;100.00;100317.94;5116760;28;20067;-62
2023/12/16 05:57:30;;;;;;;31.92;13.55;;;;;;;-0.02;100.00;100310.41;5118781;28;20434;-64
2023/12/16 05:59:57;;;;;;;36.75;15.18;;;;;;;0.12;100.00;100310.69;5116654;28;20047;-63
2023/12/16 06:02:23;;;;;;;38.42;14.82;;;;;;;0.10;100.00;100293.16;5118549;28;20139;-63
2023/12/16 06:04:50;;;;;;;36.20;14.82;;;;;;;0.28;100.00;100289.97;5116368;28;20048;-64
2023/12/16 06:07:17;;;;;;;38.90;14.35;;;;;;;0.21;100.00;100287.53;5118889;28;20379;-63
2023/12/16 06:09:44;;;;;;;35.58;14.90;;;;;;;0.18;100.00;100292.66;5116251;28;20047;-63
2023/12/16 06:12:10;;;;;;;35.25;14.82;;;;;;;0.25;100.00;100295.09;5118698;28;20452;-62
2023/12/16 06:14:37;;;;;;;34.90;14.77;;;;;;;0.00;100.00;100283.19;5116087;28;20055;-64
2023/12/16 06:17:04;;;;;;;38.20;16.08;;;;;;;0.18;100.00;100306.13;5118575;28;20124;-62
2023/12/16 06:19:30;;;;;;;42.88;15.98;;;;;;;0.10;100.00;100314.72;5115959;28;20090;-62
2023/12/16 06:21:56;;;;;;;29.02;14.07;;;;;;;0.28;100.00;100338.50;5117854;28;20159;-63
2023/12/16 06:24:23;;;;;;;44.45;15.52;;;;;;;0.45;100.00;100339.06;5116806;28;20047;-65
2023/12/16 06:26:49;;;;;;;35.22;14.32;;;;;;;0.38;100.00;100333.13;5115559;28;20104;-62
2023/12/16 06:29:16;;;;;;;34.25;14.80;;;;;;;0.49;100.00;100335.81;5118105;28;20083;-65
2023/12/16 06:31:42;;;;;;;36.92;14.15;;;;;;;0.59;100.00;100328.53;5115726;28;20064;-62
2023/12/16 06:34:09;;;;;;;33.72;14.40;;;;;;;0.40;100.00;100316.66;5117601;28;20420;-63
2023/12/16 06:36:35;;;;;;;37.25;16.10;;;;;;;0.50;100.00;100310.47;5115817;28;20060;-64
2023/12/16 06:39:01;;;;;;;35.92;13.57;;;;;;;0.54;100.00;100312.38;5118176;28;20059;-64
2023/12/16 06:41:30;;;;;;;42.25;15.52;;;;;;;0.55;100.00;100299.69;5115524;28;20150;-64
2023/12/16 06:43:56;;;;;;;33.33;14.45;;;;;;;0.41;100.00;100311.00;5117829;28;20051;-62
2023/12/16 06:46:23;;;;;;;31.88;14.32;;;;;;;0.49;100.00;100311.53;5115476;28;20406;-61
2023/12/16 06:48:50;;;;;;;39.95;14.25;;;;;;;0.57;100.00;100324.50;5118045;28;20199;-62
2023/12/16 06:51:16;;;;;;;33.40;13.80;;;;;;;0.52;100.00;100329.91;5115274;28;20132;-63
2023/12/16 06:53:42;;;;;;;33.25;14.10;;;;;;;0.50;100.00;100338.28;5115394;28;20071;-64
2023/12/16 06:56:09;;;;;;;39.60;13.60;;;;;;;0.67;100.00;100351.50;5117356;28;20083;-63
2023/12/16 06:58:38;;;;;;;31.45;14.20;;;;;;;0.63;100.00;100356.63;5115339;28;20429;-63
2023/12/16 07:01:04;;;;;;;30.30;12.77;;;;;;;0.84;100.00;100372.81;5117753;28;20058;-63
2023/12/16 07:03:30;;;;;;;33.63;14.68;;;;;;;0.77;100.00;100364.16;5115462;28;20087;-64
2023/12/16 07:05:57;;;;;;;31.88;13.27;;;;;;;0.89;100.00;100356.59;5117672;28;20060;-61
2023/12/16 07:08:24;;;;;;;30.92;13.73;;;;;;;0.79;100.00;100360.13;5115415;28;20083;-64
2023/12/16 07:10:50;;;;;;;33.45;12.32;;;;;;;0.89;100.00;100367.41;5117683;28;20087;-63
2023/12/16 07:13:17;;;;;;;31.83;13.68;;;;;;;1.04;100.00;100367.41;5115263;28;20067;-62
2023/12/16 07:15:44;;;;;;;36.65;13.73;;;;;;;0.99;100.00;100364.69;5117809;28;20048;-63
2023/12/16 07:18:10;;;;;;;33.90;12.80;;;;;;;0.70;100.00;100349.06;5115071;28;20087;-63
2023/12/16 07:20:36;;;;;;;32.70;13.20;;;;;;;0.97;100.00;100352.53;5115255;28;20058;-62
2023/12/16 07:23:04;;;;;;;34.72;13.60;;;;;;;1.12;100.00;100358.72;5117183;28;20406;-65
2023/12/16 07:25:30;;;;;;;27.38;13.20;;;;;;;1.25;100.00;100343.84;5115039;28;20059;-62
2023/12/16 07:27:57;;;;;;;31.63;12.20;;;;;;;1.26;100.00;100344.66;5117462;28;20079;-65
2023/12/16 07:30:23;;;;;;;29.60;11.00;;;;;;;1.25;100.00;100345.75;5114979;28;20062;-62
2023/12/16 07:32:51;;;;;;;26.35;12.13;;;;;;;1.29;100.00;100361.13;5117288;28;20055;-62
2023/12/16 07:35:17;;;;;;;22.35;11.02;;;;;;;1.24;100.00;100361.16;5115004;28;20051;-64
2023/12/16 07:37:44;;;;;;;21.55;11.07;;;;;;;1.38;100.00;100372.19;5117362;28;20048;-65
2023/12/16 07:40:11;;;;;;;23.65;9.88;;;;;;;1.35;100.00;100384.34;5114796;28;20055;-65
2023/12/16 07:42:38;;;;;;;21.75;9.95;;;;;;;1.47;100.00;100394.06;5117372;28;20059;-64
2023/12/16 07:45:05;;;;;;;19.33;9.20;;;;;;;1.42;100.00;100402.97;5114111;28;20341;-64
2023/12/16 07:47:32;;;;;;;22.70;7.93;;;;;;;1.30;100.00;100402.47;5115437;28;20087;-63
2023/12/16 07:49:59;;;;;;;22.33;9.35;;;;;;;1.49;100.00;100405.41;5116312;28;20055;-64
2023/12/16 07:52:26;;;;;;;17.52;7.45;;;;;;;1.56;100.00;100403.22;5114585;28;20116;-63
2023/12/16 07:54:52;;;;;;;12.98;6.38;;;;;;;1.83;100.00;100410.97;5116674;28;20055;-64
2023/12/16 07:57:19;;;;;;;10.88;5.72;;;;;;;2.02;100.00;100409.28;5114696;28;20051;-63
2023/12/16 07:59:46;;;;;;;15.93;6.15;;;;;;;1.93;100.00;100408.22;5117086;28;20059;-64
2023/12/16 08:02:12;;;;;;;12.48;5.35;;;;;;;1.95;100.00;100411.47;5114538;28;20059;-65
2023/12/16 08:04:39;;;;;;;10.05;4.47;;;;;;;1.92;100.00;100409.31;5116803;28;20048;-62
2023/12/16 08:07:07;;;;;;;6.38;4.18;;;;;;;2.03;100.00;100401.97;5114302;28;20428;-63
2023/12/16 08:09:33;;;;;;;5.88;4.03;;;;;;;2.00;100.00;100403.34;5116811;28;20079;-62
2023/12/16 08:12:00;;;;;;;7.22;3.75;;;;;;;2.22;100.00;100407.56;5114116;28;20048;-64
2023/12/16 08:14:26;;;;;;;6.30;3.92;;;;;;;2.26;100.00;100414.03;5116182;28;20052;-64
2023/12/16 08:16:53;;;;;;;6.22;3.30;;;;;;;1.95;100.00;100406.06;5114612;28;20052;-64
2023/12/16 08:19:19;;;;;;;5.00;3.45;;;;;;;2.32;100.00;100412.91;5097495;28;20083;-62
2023/12/16 08:21:45;;;;;;;5.63;3.17;;;;;;;2.42;100.00;100402.03;5116432;28;20078;-64
2023/12/16 08:24:13;;;;;;;10.55;3.67;;;;;;;2.17;100.00;100394.88;5114185;28;20341;-64
2023/12/16 08:26:39;;;;;;;9.18;5.03;;;;;;;2.46;100.00;100404.97;5116020;28;20059;-63
2023/12/16 08:29:05;;;;;;;6.03;3.40;;;;;;;2.21;100.00;100381.59;5114065;28;20113;-64
2023/12/16 08:31:32;;;;;;;7.75;3.38;;;;;;;2.51;100.00;100383.31;5116119;28;20102;-62
2023/12/16 08:33:58;;;;;;;7.55;3.38;;;;;;;2.68;100.00;100372.88;5113639;28;20087;-63
2023/12/16 08:36:24;;;;;;;6.38;3.15;;;;;;;2.59;100.00;100361.84;5116318;28;20337;-65
2023/12/16 08:38:51;;;;;;;6.70;4.03;;;;;;;2.60;100.00;100365.38;5114202;28;20416;-63
2023/12/16 08:41:18;;;;;;;4.97;2.90;;;;;;;2.47;100.00;100366.00;5116628;28;20051;-62
2023/12/16 08:43:44;;;;;;;3.40;2.95;;;;;;;2.54;100.00;100371.91;5114053;28;20116;-63
2023/12/16 08:46:11;;;;;;;5.90;3.88;;;;;;;2.54;100.00;100371.91;5114069;28;20450;-63
2023/12/16 08:48:40;;;;;;;7.30;3.45;;;;;;;2.70;100.00;100370.72;5116065;28;20065;-61
2023/12/16 08:51:07;;;;;;;5.75;3.33;;;;;;;2.64;100.00;100361.00;5114034;28;20047;-63
2023/12/16 08:53:33;;;;;;;2.97;2.70;;;;;;;2.68;100.00;100366.66;5116063;28;20149;-64
2023/12/16 08:55:59;;;;;;;8.52;2.70;;;;;;;2.68;100.00;100372.88;5113860;28;20066;-61
2023/12/16 08:58:27;;;;;;;4.93;3.25;;;;;;;2.89;100.00;100372.72;5118914;28;20047;-63
2023/12/16 09:00:53;;;;;;;3.72;2.20;;;;;;;2.34;100.00;100349.31;5117479;28;20052;-62
2023/12/16 09:03:20;;;;;;;3.25;2.92;;;;;;;2.95;100.00;100372.38;5119713;28;20087;-62
2023/12/16 09:05:47;;;;;;;4.00;2.90;;;;;;;2.94;100.00;100348.31;5117445;28;20059;-63
2023/12/16 09:08:13;;;;;;;3.80;2.55;;;;;;;2.83;100.00;100352.97;5119819;28;20092;-64
2023/12/16 09:10:39;;;;;;;8.68;2.95;;;;;;;2.96;100.00;100346.91;5117139;28;20349;-63
2023/12/16 09:13:06;;;;;;;3.35;2.50;;;;;;;3.09;100.00;100337.31;5117904;28;20059;-62
2023/12/16 09:15:33;;;;;;;5.82;2.45;;;;;;;2.99;100.00;100302.19;5118976;28;20365;-64
2023/12/16 09:17:59;;;;;;;3.83;2.60;;;;;;;2.92;100.00;100280.84;5117002;28;20056;-62
2023/12/16 09:20:25;;;;;;;4.72;2.85;;;;;;;2.99;100.00;100291.34;5119204;28;20055;-65
2023/12/16 09:22:52;;;;;;;7.13;2.88;;;;;;;2.81;100.00;100290.19;5117196;28;20113;-62
2023/12/16 09:25:19;;;;;;;9.77;3.42;;;;;;;2.90;100.00;100317.44;5119184;28;20161;-62
2023/12/16 09:27:45;;;;;;;4.25;3.10;;;;;;;3.02;100.00;100318.69;5117063;28;20062;-61
2023/12/16 09:30:12;;;;;;;3.45;2.63;;;;;;;2.91;100.00;100319.88;5119316;28;20109;-63
2023/12/16 09:32:43;;;;;;;2.60;2.40;;;;;;;3.04;100.00;100319.22;5116856;28;20047;-62
2023/12/16 09:35:09;;;;;;;9.95;3.63;;;;;;;3.04;100.00;100315.69;5119129;28;20059;-64
2023/12/16 09:37:36;;;;;;;7.40;3.90;;;;;;;3.16;100.00;100307.97;5116455;28;20091;-61
2023/12/16 09:40:02;;;;;;;4.30;3.05;;;;;;;3.16;100.00;100307.16;5118247;28;20058;-62
2023/12/16 09:42:29;;;;;;;4.43;2.85;;;;;;;3.01;100.00;100300.00;5117908;28;20055;-61
2023/12/16 09:44:57;;;;;;;8.45;2.35;;;;;;;2.92;100.00;100317.97;5116516;28;20098;-62
2023/12/16 09:47:24;;;;;;;4.00;2.80;;;;;;;3.18;100.00;100342.91;5118788;28;20401;-63
2023/12/16 09:49:52;;;;;;;16.25;4.53;;;;;;;3.14;100.00;100328.34;5116823;28;20241;-62
2023/12/16 09:52:19;;;;;;;7.30;3.92;;;;;;;3.14;100.00;100323.72;5118826;28;20096;-62
2023/12/16 09:54:46;;;;;;;10.50;4.40;;;;;;;2.81;100.00;100317.28;5116173;28;20051;-61
2023/12/16 09:57:14;;;;;;;10.85;4.60;;;;;;;3.17;100.00;100327.75;5118550;28;20056;-62
2023/12/16 09:59:42;;;;;;;4.15;2.10;;;;;;;3.14;100.00;100326.44;5116248;28;20056;-62
2023/12/16 10:02:16;;;;;;;4.97;3.05;;;;;;;3.23;100.00;100313.03;5118765;28;20052;-62
2023/12/16 10:04:43;;;;;;;4.13;2.63;;;;;;;3.21;100.00;100315.25;5115365;28;20397;-61
2023/12/16 10:07:10;;;;;;;8.23;3.35;;;;;;;3.12;100.00;100308.84;5116569;28;20066;-61
2023/12/16 10:09:36;;;;;;;4.63;2.65;;;;;;;3.15;100.00;100316.41;5100684;28;20062;-64
2023/12/16 10:12:06;;;;;;;5.10;3.13;;;;;;;2.79;100.00;100324.84;5116201;28;20052;-63
2023/12/16 10:14:45;;;;;;;4.55;2.80;;;;;;;3.11;100.00;100348.69;5118331;28;20091;-64
2023/12/16 10:17:11;;;;;;;3.08;2.50;;;;;;;3.26;100.00;100342.28;5116029;28;20055;-61
2023/12/16 10:19:38;;;;;;;4.47;2.65;;;;;;;3.25;100.00;100332.53;5118475;28;20063;-63
2023/12/16 10:22:05;;;;;;;3.80;2.50;;;;;;;3.30;100.00;100303.50;5116097;28;20082;-64
2023/12/16 10:24:32;;;;;;;4.07;3.13;;;;;;;3.35;100.00;100296.38;5118513;28;20132;-63
2023/12/16 10:27:02;;;;;;;4.85;3.40;;;;;;;3.22;100.00;100290.56;5115974;28;20083;-62
2023/12/16 10:29:29;;;;;;;4.88;3.78;;;;;;;2.98;100.00;100304.09;5118203;28;20047;-65
2023/12/16 10:31:55;;;;;;;6.80;3.58;;;;;;;3.13;100.00;100316.66;5116756;28;20069;-63
2023/12/16 10:34:21;;;;;;;7.15;3.40;;;;;;;3.09;100.00;100317.53;5099307;28;20113;-64
2023/12/16 10:36:48;;;;;;;8.70;4.10;;;;;;;3.18;100.00;100324.75;5118144;28;20095;-61
2023/12/16 10:39:14;;;;;;;6.72;4.40;;;;;;;3.18;100.00;100329.38;5115677;28;20055;-62
2023/12/16 10:41:41;;;;;;;6.82;4.00;;;;;;;3.00;100.00;100320.88;5118058;28;20062;-64
2023/12/16 10:44:07;;;;;;;6.90;4.05;;;;;;;3.21;100.00;100335.03;5115623;28;20052;-61
2023/12/16 10:46:36;;;;;;;9.73;3.75;;;;;;;3.23;100.00;100338.25;5117906;28;20110;-64
2023/12/16 10:49:06;;;;;;;6.20;3.80;;;;;;;3.07;100.00;100331.38;5115598;28;20059;-63
2023/12/16 10:51:36;;;;;;;5.38;3.35;;;;;;;3.21;100.00;100335.03;5118072;28;20055;-62
2023/12/16 10:54:06;;;;;;;9.32;3.72;;;;;;;3.29;100.00;100326.25;5115593;28;20395;-64
2023/12/16 10:56:38;;;;;;;4.88;3.65;;;;;;;3.34;100.00;100327.31;5117128;28;20051;-63
2023/12/16 10:59:07;;;;;;;5.22;3.47;;;;;;;3.21;100.00;100335.03;5117408;28;20051;-63
2023/12/16 11:01:37;;;;;;;10.73;7.38;;;;;;;3.05;100.00;100333.56;5115343;28;20052;-63
2023/12/16 11:04:10;;;;;;;7.00;3.55;;;;;;;3.19;100.00;100348.03;5117681;28;20047;-61
2023/12/16 11:06:43;;;;;;;6.68;4.93;;;;;;;3.18;100.00;100359.19;5115435;28;20425;-62
2023/12/16 11:09:11;;;;;;;6.32;4.13;;;;;;;3.29;100.00;100356.06;5117803;28;20157;-62
2023/12/16 11:11:39;;;;;;;6.20;3.78;;;;;;;3.47;100.00;100364.56;5115260;28;20090;-63